Estación de San Pedro

Ultimos registro cada 15 minutos 49
Estación Fecha / Hora Temperatura Humedad Lluvia Velocidad Dirección Radiación Presion
49 San Pedro 04-05-2026 12:00 19,2 40,9 0 0 260 276,9 1000,4
48 San Pedro 04-05-2026 11:45 18,1 41,8 0 0 241 349,4 1000,6
47 San Pedro 04-05-2026 11:30 17,3 44,6 0 0 277 330,6 1000,6
46 San Pedro 04-05-2026 11:15 17,1 46,8 0 0 24 245,6 1000,7
45 San Pedro 04-05-2026 11:00 17,2 48,1 0 0 14 268,1 1000,8
44 San Pedro 04-05-2026 10:45 16,8 46,9 0 0 341 298,1 1000,9
43 San Pedro 04-05-2026 10:30 17,4 46,7 0 0 38 369,4 1001
42 San Pedro 04-05-2026 10:15 14,4 57,4 0 0 13 343,1 1000,9
41 San Pedro 04-05-2026 10:00 14 58,6 0 0 15 168,1 1001,2
40 San Pedro 04-05-2026 09:45 13,3 57,8 0 0 58 348,1 1001,1
39 San Pedro 04-05-2026 09:30 11 67 0 0 77 348,1 1000,9
38 San Pedro 04-05-2026 09:15 8,8 74,3 0 0 112 299,4 1001,1
37 San Pedro 04-05-2026 09:00 4,2 90,2 0 0 177 58,1 1001,2
36 San Pedro 04-05-2026 08:45 4,4 89,6 0 0 177 48,1 1001,1
35 San Pedro 04-05-2026 08:30 4,3 90,3 0 0 177 50,6 1001
34 San Pedro 04-05-2026 08:15 3 91,4 0 0 177 19,4 1001
33 San Pedro 04-05-2026 08:00 2,3 91,4 0 0 177 14,4 1000,9
32 San Pedro 04-05-2026 07:45 2 94,4 0 0 177 8,1 1000,8
31 San Pedro 04-05-2026 07:30 1,9 92,1 0 0 177 3,1 1000,7
30 San Pedro 04-05-2026 07:15 2,1 92,5 0 0 177 0,6 1000,8
29 San Pedro 04-05-2026 07:00 2,4 93 0 0 187 0,6 1000,7
28 San Pedro 04-05-2026 06:45 2,2 91,3 0 0 236 0,6 1000,6
27 San Pedro 04-05-2026 06:30 2,1 95,3 0 0 236 0,6 1000,5
26 San Pedro 04-05-2026 06:15 2,1 92,8 0 0 236 0,6 1000,3
25 San Pedro 04-05-2026 06:00 3 93,6 0 0 236 0,6 1000,2
24 San Pedro 04-05-2026 05:45 2 93,9 0 0 236 0,6 1000,3
23 San Pedro 04-05-2026 05:30 2,4 92,9 0 0 236 0,6 1000,2
22 San Pedro 04-05-2026 05:15 2,7 92,6 0 0 236 0,6 1000,3
21 San Pedro 04-05-2026 05:00 3,4 92,6 0 0 236 0,6 1000,2
20 San Pedro 04-05-2026 04:45 3,8 91,3 0 0 236 0,6 1000,1
19 San Pedro 04-05-2026 04:30 4,2 89,3 0 0 236 0,6 1000,1
18 San Pedro 04-05-2026 04:15 4,4 89,3 0 0 236 0,6 1000,4
17 San Pedro 04-05-2026 04:00 3,9 90,4 0 0 236 0,6 1000,3
16 San Pedro 04-05-2026 03:45 3,7 91,1 0 0 236 0,6 1000,4
15 San Pedro 04-05-2026 03:30 3,3 90,3 0 0 236 0,6 1000,5
14 San Pedro 04-05-2026 03:15 5,1 85 0 0 132 0,6 1000,6
13 San Pedro 04-05-2026 03:00 5,4 84,6 0 0 73 0,6 1000,7
12 San Pedro 04-05-2026 02:45 5,8 83,3 0 0,5 76 0,6 1001
11 San Pedro 04-05-2026 02:30 4,1 90,3 0 0 74 0,6 1001,2
10 San Pedro 04-05-2026 02:15 4,1 88,7 0 0 74 0,6 1001,4
9 San Pedro 04-05-2026 02:00 3,8 88,1 0 0 76 0,6 1001
8 San Pedro 04-05-2026 01:45 3,4 89,4 0 0 76 0,6 1001,2
7 San Pedro 04-05-2026 01:30 3,8 88,5 0 0 74 0,6 1001
6 San Pedro 04-05-2026 01:15 4,6 87,2 0 0 70 0,6 1001,3
5 San Pedro 04-05-2026 01:00 4,8 83,4 0 0 70 0,6 1001,5
4 San Pedro 04-05-2026 00:45 5,7 84 0 0 70 0,6 1001,5
3 San Pedro 04-05-2026 00:30 4,8 87,7 0 0 70 0,6 1002
2 San Pedro 04-05-2026 00:15 4,5 88,1 0 0 69 0,6 1002,2
1 San Pedro 04-05-2026 00:00 5,4 83,2 0 0 70 0,6 1001,9